createdAt,value
2022-09-23T00:01:26.292Z,8.80
2022-09-23T00:03:54.931Z,8.80
2022-09-23T00:06:23.866Z,8.80
2022-09-23T00:08:52.184Z,8.80
2022-09-23T00:11:21.929Z,8.70
2022-09-23T00:13:52.598Z,8.80
2022-09-23T00:16:21.808Z,8.70
2022-09-23T00:18:50.922Z,8.70
2022-09-23T00:21:19.745Z,8.80
2022-09-23T00:23:48.095Z,8.80
2022-09-23T00:26:17.170Z,8.80
2022-09-23T00:28:45.983Z,8.80
2022-09-23T00:31:17.002Z,8.80
2022-09-23T00:33:45.289Z,8.80
2022-09-23T00:36:16.806Z,8.90
2022-09-23T00:38:45.315Z,8.80
2022-09-23T00:41:15.314Z,8.90
2022-09-23T00:43:44.729Z,8.80
2022-09-23T00:46:15.058Z,8.80
2022-09-23T00:48:44.589Z,8.80
2022-09-23T00:51:14.389Z,8.70
2022-09-23T00:53:42.519Z,8.80
2022-09-23T00:56:10.656Z,8.70
2022-09-23T00:58:39.603Z,8.70
2022-09-23T01:01:07.831Z,8.70
2022-09-23T01:03:36.509Z,8.70
2022-09-23T01:06:06.655Z,8.60
2022-09-23T01:08:34.754Z,8.60
2022-09-23T01:11:08.079Z,8.70
2022-09-23T01:13:39.931Z,8.70
2022-09-23T01:16:10.185Z,8.80
2022-09-23T01:18:43.547Z,8.70
2022-09-23T01:21:24.928Z,8.70
2022-09-23T01:24:19.491Z,8.70
2022-09-23T01:26:57.848Z,8.60
2022-09-23T01:29:37.469Z,8.70
2022-09-23T01:32:08.875Z,8.60
2022-09-23T01:34:39.056Z,8.60
2022-09-23T01:37:09.295Z,8.70
2022-09-23T01:39:38.227Z,8.60
2022-09-23T01:42:07.697Z,8.70
2022-09-23T01:44:38.800Z,8.70
2022-09-23T01:47:11.206Z,8.60
2022-09-23T01:49:43.666Z,8.70
2022-09-23T01:52:16.550Z,8.70
2022-09-23T01:54:47.952Z,8.60
2022-09-23T01:57:18.895Z,8.60
2022-09-23T01:59:48.384Z,8.70
2022-09-23T02:02:19.882Z,8.70
2022-09-23T02:04:49.337Z,8.70
2022-09-23T02:07:20.408Z,8.60
2022-09-23T02:09:54.107Z,8.70
2022-09-23T02:12:22.388Z,8.70
2022-09-23T02:14:51.872Z,8.60
2022-09-23T02:17:24.292Z,8.60
2022-09-23T02:19:54.213Z,8.60
2022-09-23T02:22:25.129Z,8.70
2022-09-23T02:24:54.813Z,8.60
2022-09-23T02:27:26.105Z,8.60
2022-09-23T02:29:56.866Z,8.60
2022-09-23T02:32:29.496Z,8.60
2022-09-23T02:35:00.559Z,8.70
2022-09-23T02:37:32.588Z,8.70
2022-09-23T02:40:03.209Z,8.70
2022-09-23T02:42:35.830Z,8.60
2022-09-23T02:45:04.249Z,8.70
2022-09-23T02:47:33.781Z,8.70
2022-09-23T02:50:02.491Z,8.60
2022-09-23T02:52:30.777Z,8.60
2022-09-23T02:54:59.007Z,8.70
2022-09-23T02:57:27.107Z,8.60
2022-09-23T02:59:55.220Z,8.60
2022-09-23T03:02:37.096Z,8.60
2022-09-23T03:05:08.551Z,8.60
2022-09-23T03:07:41.709Z,8.70
2022-09-23T03:10:12.204Z,8.70
2022-09-23T03:12:41.640Z,8.70
2022-09-23T03:15:22.224Z,8.70
2022-09-23T03:17:56.279Z,8.60
2022-09-23T03:20:27.403Z,8.70
2022-09-23T03:22:57.327Z,8.70
2022-09-23T03:25:25.948Z,8.60
2022-09-23T03:27:57.090Z,8.60
2022-09-23T03:30:26.303Z,8.60
2022-09-23T03:32:56.165Z,8.60
2022-09-23T03:35:24.806Z,8.60
2022-09-23T03:37:55.118Z,8.60
2022-09-23T03:40:25.001Z,8.60
2022-09-23T03:42:53.505Z,8.60
2022-09-23T03:45:32.184Z,8.50
2022-09-23T03:48:01.950Z,8.50
2022-09-23T03:50:30.277Z,8.50
2022-09-23T03:52:59.409Z,8.50
2022-09-23T03:55:27.527Z,8.50
2022-09-23T03:57:55.670Z,8.50
2022-09-23T04:00:24.006Z,8.50
2022-09-23T04:02:52.390Z,8.40
2022-09-23T04:05:22.607Z,8.50
2022-09-23T04:07:51.221Z,8.40
2022-09-23T04:10:19.519Z,8.40
2022-09-23T04:12:47.797Z,8.40
2022-09-23T04:15:16.023Z,8.40
2022-09-23T04:17:44.251Z,8.30
2022-09-23T04:20:12.531Z,8.30
2022-09-23T04:22:42.252Z,8.30
2022-09-23T04:25:10.927Z,8.20
2022-09-23T04:27:39.075Z,8.20
2022-09-23T04:30:08.211Z,8.20
2022-09-23T04:32:36.316Z,8.20
2022-09-23T04:35:04.915Z,8.10
2022-09-23T04:37:34.722Z,8.10
2022-09-23T04:40:06.924Z,8.10
2022-09-23T04:42:35.129Z,8.10
2022-09-23T04:45:04.626Z,8.10
2022-09-23T04:47:33.062Z,8.10
2022-09-23T04:50:01.256Z,8.10
2022-09-23T04:52:29.648Z,8.10
2022-09-23T04:54:57.774Z,8.10
2022-09-23T04:57:27.273Z,8.10
2022-09-23T04:59:57.498Z,8.10
2022-09-23T05:02:26.187Z,8.10
2022-09-23T05:04:54.399Z,8.10
2022-09-23T05:07:22.585Z,8.10
2022-09-23T05:09:50.690Z,8.10
2022-09-23T05:12:19.356Z,8.30
2022-09-23T05:14:49.089Z,8.30
2022-09-23T05:17:17.213Z,8.30
2022-09-23T05:19:45.451Z,8.30
2022-09-23T05:22:13.574Z,8.30
2022-09-23T05:24:41.761Z,8.30
2022-09-23T05:27:10.104Z,8.40
2022-09-23T05:29:39.525Z,8.40
2022-09-23T05:32:09.902Z,8.40
2022-09-23T05:34:38.197Z,8.40
2022-09-23T05:37:06.463Z,8.50
2022-09-23T05:39:34.547Z,8.50
2022-09-23T05:42:02.887Z,8.50
2022-09-23T05:44:31.351Z,8.50
2022-09-23T05:46:59.558Z,8.50
2022-09-23T05:49:48.337Z,8.50
2022-09-23T05:52:17.892Z,8.50
2022-09-23T05:54:46.143Z,8.50
2022-09-23T05:57:14.277Z,8.50
2022-09-23T05:59:43.556Z,8.50
2022-09-23T06:02:11.738Z,8.50
2022-09-23T06:04:41.312Z,8.60
2022-09-23T06:07:09.585Z,8.60
2022-09-23T06:09:37.881Z,8.60
2022-09-23T06:12:06.473Z,8.60
2022-09-23T06:14:34.629Z,8.60
2022-09-23T06:17:02.753Z,8.70
2022-09-23T06:19:30.865Z,8.70
2022-09-23T06:22:00.359Z,8.80
2022-09-23T06:24:31.335Z,8.70
2022-09-23T06:27:01.054Z,8.70
2022-09-23T06:29:30.959Z,8.70
2022-09-23T06:31:59.776Z,8.80
2022-09-23T06:34:27.976Z,8.80
2022-09-23T06:36:56.085Z,8.80
2022-09-23T06:39:25.673Z,8.80
2022-09-23T06:41:54.401Z,8.80
2022-09-23T06:44:22.492Z,8.90
2022-09-23T06:46:51.783Z,8.90
2022-09-23T06:49:21.609Z,8.90
2022-09-23T06:51:49.932Z,8.90
2022-09-23T06:54:18.570Z,8.90
2022-09-23T06:56:48.464Z,8.90
2022-09-23T06:59:17.120Z,8.90
2022-09-23T07:01:47.715Z,8.90
2022-09-23T07:04:16.080Z,8.90
2022-09-23T07:06:44.288Z,9.00
2022-09-23T07:09:12.412Z,9.00
2022-09-23T07:11:40.593Z,9.00
2022-09-23T07:14:10.058Z,9.00
2022-09-23T07:16:38.176Z,9.10
2022-09-23T07:19:06.423Z,9.10
2022-09-23T07:21:34.623Z,9.10
2022-09-23T07:24:02.967Z,9.20
2022-09-23T07:26:34.159Z,9.20
2022-09-23T07:29:05.202Z,9.20
2022-09-23T07:31:39.760Z,9.30
2022-09-23T07:34:08.637Z,9.30
2022-09-23T07:36:37.813Z,9.40
2022-09-23T07:39:05.962Z,9.40
2022-09-23T07:41:34.550Z,9.50
2022-09-23T07:44:03.204Z,9.60
2022-09-23T07:46:32.124Z,9.60
2022-09-23T07:49:02.038Z,9.60
2022-09-23T07:51:35.748Z,9.70
2022-09-23T07:54:05.443Z,9.70
2022-09-23T07:56:33.627Z,9.80
2022-09-23T07:59:03.241Z,9.80
2022-09-23T08:01:32.672Z,9.80
2022-09-23T08:04:04.082Z,9.80
2022-09-23T08:06:32.208Z,9.90
2022-09-23T08:09:00.783Z,9.90
2022-09-23T08:11:29.057Z,9.90
2022-09-23T08:13:57.302Z,10.00
2022-09-23T08:16:25.467Z,10.00
2022-09-23T08:18:53.613Z,10.10
2022-09-23T08:21:23.307Z,10.20
2022-09-23T08:23:51.902Z,10.20
2022-09-23T08:26:22.306Z,10.30
2022-09-23T08:28:50.793Z,10.30
2022-09-23T08:31:19.043Z,10.40
2022-09-23T08:33:47.351Z,10.40
2022-09-23T08:36:15.460Z,10.40
2022-09-23T08:38:44.959Z,10.40
2022-09-23T08:41:16.545Z,10.40
2022-09-23T08:43:47.471Z,10.50
2022-09-23T08:46:15.707Z,10.50
2022-09-23T08:48:44.520Z,10.50
2022-09-23T08:51:14.877Z,10.50
2022-09-23T08:53:45.676Z,10.60
2022-09-23T08:56:15.625Z,10.60
2022-09-23T08:58:48.865Z,10.60
2022-09-23T09:01:22.163Z,10.70
2022-09-23T09:03:52.046Z,10.90
2022-09-23T09:06:21.893Z,10.90
2022-09-23T09:08:58.905Z,11.10
2022-09-23T09:11:31.535Z,11.40
2022-09-23T09:14:02.232Z,11.30
2022-09-23T09:17:01.217Z,11.30
2022-09-23T09:19:47.410Z,11.20
2022-09-23T09:22:17.066Z,11.20
2022-09-23T09:24:46.730Z,11.20
2022-09-23T09:27:14.939Z,11.10
2022-09-23T09:29:44.232Z,11.20
2022-09-23T09:32:21.089Z,11.20
2022-09-23T09:34:54.127Z,11.20
2022-09-23T09:37:24.848Z,11.10
2022-09-23T09:39:54.254Z,11.20
2022-09-23T09:42:25.301Z,11.20
2022-09-23T09:44:55.516Z,11.20
2022-09-23T09:47:29.591Z,11.20
2022-09-23T09:49:59.051Z,11.20
2022-09-23T09:52:28.839Z,11.20
2022-09-23T09:55:17.225Z,11.30
2022-09-23T09:57:46.740Z,11.30
2022-09-23T10:00:20.682Z,11.30
2022-09-23T10:02:50.288Z,11.30
2022-09-23T10:05:27.195Z,11.30
2022-09-23T10:07:55.576Z,11.30
2022-09-23T10:10:32.799Z,11.40
2022-09-23T10:13:02.612Z,11.60
2022-09-23T10:15:33.303Z,11.60
2022-09-23T10:18:02.226Z,11.70
2022-09-23T10:20:38.172Z,11.80
2022-09-23T10:23:09.988Z,11.90
2022-09-23T10:25:39.571Z,12.00
2022-09-23T10:28:34.104Z,12.30
2022-09-23T10:31:06.127Z,12.30
2022-09-23T10:33:34.442Z,12.40
2022-09-23T10:36:02.807Z,12.50
2022-09-23T10:38:31.207Z,12.60
2022-09-23T10:41:18.320Z,12.80
2022-09-23T10:44:11.565Z,12.90
2022-09-23T10:46:42.165Z,13.00
2022-09-23T10:49:29.044Z,13.10
2022-09-23T10:52:04.354Z,13.20
2022-09-23T10:54:35.770Z,13.30
2022-09-23T10:57:27.243Z,13.40
2022-09-23T10:59:58.284Z,13.60
2022-09-23T11:02:40.672Z,13.80
2022-09-23T11:05:20.086Z,13.80
2022-09-23T11:07:51.496Z,13.90
2022-09-23T11:10:55.929Z,13.80
2022-09-23T11:13:34.032Z,13.90
2022-09-23T11:16:06.688Z,14.00
2022-09-23T11:18:52.422Z,14.00
2022-09-23T11:21:32.771Z,14.10
2022-09-23T11:24:43.405Z,14.30
2022-09-23T11:27:15.202Z,14.30
2022-09-23T11:30:11.345Z,14.40
2022-09-23T11:33:16.200Z,14.30
2022-09-23T11:35:47.801Z,14.50
2022-09-23T11:38:19.040Z,14.60
2022-09-23T11:40:48.585Z,14.60
2022-09-23T11:43:19.846Z,14.70
2022-09-23T11:45:51.491Z,14.90
2022-09-23T11:48:21.680Z,14.90
2022-09-23T11:50:51.371Z,15.00
2022-09-23T11:53:21.603Z,15.00
2022-09-23T11:55:58.301Z,15.10
2022-09-23T11:58:28.624Z,15.10
2022-09-23T12:01:01.522Z,15.20
2022-09-23T12:03:43.730Z,15.10
2022-09-23T12:06:15.908Z,15.10
2022-09-23T12:08:44.737Z,15.10
2022-09-23T12:11:21.198Z,15.20
2022-09-23T12:13:50.844Z,15.10
2022-09-23T12:16:44.816Z,15.00
2022-09-23T12:19:20.928Z,14.70
2022-09-23T12:22:01.397Z,14.60
2022-09-23T12:24:47.203Z,14.50
2022-09-23T12:27:23.292Z,14.50
2022-09-23T12:29:53.902Z,14.40
2022-09-23T12:32:24.799Z,14.40
2022-09-23T12:34:52.988Z,14.60
2022-09-23T12:37:29.430Z,14.60
2022-09-23T12:40:00.985Z,14.80
2022-09-23T12:42:31.255Z,15.00
2022-09-23T12:45:34.775Z,15.00
2022-09-23T12:48:05.205Z,15.00
2022-09-23T12:50:53.119Z,15.20
2022-09-23T12:53:58.563Z,15.10
2022-09-23T12:56:53.285Z,15.30
2022-09-23T12:59:28.442Z,15.10
2022-09-23T13:01:56.738Z,15.40
2022-09-23T13:05:02.616Z,15.40
2022-09-23T13:07:34.037Z,15.40
2022-09-23T13:10:08.014Z,15.40
2022-09-23T13:12:38.386Z,15.50
2022-09-23T13:15:12.560Z,15.40
2022-09-23T13:17:41.092Z,15.40
2022-09-23T13:20:34.851Z,15.50
2022-09-23T13:23:23.307Z,15.60
2022-09-23T13:25:52.567Z,15.60
2022-09-23T13:28:40.617Z,15.70
2022-09-23T13:31:15.572Z,15.60
2022-09-23T13:33:44.963Z,15.60
2022-09-23T13:36:16.204Z,15.50
2022-09-23T13:38:46.159Z,15.40
2022-09-23T13:41:16.523Z,15.50
2022-09-23T13:43:46.037Z,15.40
2022-09-23T13:46:17.529Z,15.30
2022-09-23T13:48:46.865Z,15.20
2022-09-23T13:51:24.669Z,15.10
2022-09-23T13:53:53.501Z,14.90
2022-09-23T13:56:22.039Z,14.90
2022-09-23T13:58:50.129Z,14.90
2022-09-23T14:01:23.070Z,14.70
2022-09-23T14:03:52.136Z,14.70
2022-09-23T14:06:21.813Z,14.70
2022-09-23T14:08:51.236Z,14.70
2022-09-23T14:11:20.072Z,14.60
2022-09-23T14:13:48.709Z,14.60
2022-09-23T14:16:17.333Z,14.50
2022-09-23T14:18:46.531Z,14.50
2022-09-23T14:21:35.377Z,14.40
2022-09-23T14:24:17.134Z,14.50
2022-09-23T14:26:47.072Z,14.40
2022-09-23T14:29:16.739Z,14.40
2022-09-23T14:31:56.850Z,14.30
2022-09-23T14:35:06.912Z,14.30
2022-09-23T14:37:58.524Z,14.20
2022-09-23T14:40:27.656Z,14.10
2022-09-23T14:42:59.288Z,14.10
2022-09-23T14:45:28.410Z,14.00
2022-09-23T14:47:59.539Z,14.00
2022-09-23T14:50:39.593Z,13.90
2022-09-23T14:53:40.551Z,13.80
2022-09-23T14:56:16.977Z,13.70
2022-09-23T14:58:52.706Z,13.60
2022-09-23T15:01:29.275Z,13.70
2022-09-23T15:03:57.761Z,13.60
2022-09-23T15:06:26.511Z,13.60
2022-09-23T15:08:56.457Z,13.60
2022-09-23T15:11:25.311Z,13.60
2022-09-23T15:13:53.842Z,13.60
2022-09-23T15:16:26.039Z,13.60
2022-09-23T15:18:55.819Z,13.50
2022-09-23T15:21:25.005Z,13.50
2022-09-23T15:23:55.078Z,13.60
2022-09-23T15:26:25.324Z,13.60
2022-09-23T15:28:55.940Z,13.60
2022-09-23T15:31:26.842Z,13.50
2022-09-23T15:33:56.093Z,13.60
2022-09-23T15:36:25.914Z,13.50
2022-09-23T15:38:54.420Z,13.40
2022-09-23T15:41:24.203Z,13.30
2022-09-23T15:43:52.419Z,13.40
2022-09-23T15:46:22.269Z,13.40
2022-09-23T15:48:58.619Z,13.40
2022-09-23T15:51:27.302Z,13.40
2022-09-23T15:53:56.452Z,13.50
2022-09-23T15:56:27.164Z,13.50
2022-09-23T15:58:55.300Z,13.50
2022-09-23T16:01:25.871Z,13.50
2022-09-23T16:03:54.000Z,13.40
2022-09-23T16:06:22.578Z,13.40
2022-09-23T16:08:52.022Z,13.30
2022-09-23T16:11:21.061Z,13.20
2022-09-23T16:16:21.244Z,13.00
2022-09-23T16:18:52.035Z,13.00
2022-09-23T16:21:22.461Z,12.90
2022-09-23T16:23:51.992Z,12.80
2022-09-23T16:26:21.851Z,12.70
2022-09-23T16:28:52.389Z,12.60
2022-09-23T16:31:20.822Z,12.60
2022-09-23T16:33:50.573Z,12.50
2022-09-23T16:36:22.208Z,12.40
2022-09-23T16:38:50.338Z,12.30
2022-09-23T16:41:18.498Z,12.20
2022-09-23T16:43:47.333Z,12.20
2022-09-23T16:46:17.374Z,12.20
2022-09-23T16:48:51.420Z,12.10
2022-09-23T16:51:21.833Z,12.00
2022-09-23T16:53:50.196Z,11.90
2022-09-23T16:56:25.656Z,11.80
2022-09-23T16:58:56.188Z,11.80
2022-09-23T17:01:44.133Z,11.70
2022-09-23T17:04:12.276Z,11.70
2022-09-23T17:06:44.384Z,11.60
2022-09-23T17:09:12.999Z,11.60
2022-09-23T17:11:41.420Z,11.50
2022-09-23T17:14:10.430Z,11.50
2022-09-23T17:16:40.242Z,11.40
2022-09-23T17:19:08.804Z,11.30
2022-09-23T17:21:37.107Z,11.30
2022-09-23T17:24:05.937Z,11.20
2022-09-23T17:26:34.233Z,11.10
2022-09-23T17:29:02.836Z,11.20
2022-09-23T17:31:31.112Z,11.10
2022-09-23T17:34:00.913Z,11.20
2022-09-23T17:36:29.343Z,11.10
2022-09-23T17:38:57.447Z,11.10
2022-09-23T17:41:25.636Z,11.00
2022-09-23T17:43:58.635Z,11.00
2022-09-23T17:46:29.082Z,10.90
2022-09-23T17:48:57.182Z,10.90
2022-09-23T17:51:27.285Z,10.80
2022-09-23T17:53:55.405Z,10.70
2022-09-23T17:56:25.048Z,10.70
2022-09-23T17:58:53.606Z,10.70
2022-09-23T18:01:23.200Z,10.60
2022-09-23T18:03:54.798Z,10.50
2022-09-23T18:06:23.788Z,10.50
2022-09-23T18:08:53.736Z,10.50
2022-09-23T18:11:22.702Z,10.40
2022-09-23T18:13:51.381Z,10.40
2022-09-23T18:16:19.871Z,10.40
2022-09-23T18:18:51.819Z,10.30
2022-09-23T18:21:20.750Z,10.30
2022-09-23T18:23:49.101Z,10.30
2022-09-23T18:26:20.394Z,10.20
2022-09-23T18:28:48.504Z,10.10
2022-09-23T18:31:18.272Z,10.00
2022-09-23T18:33:50.485Z,9.90
2022-09-23T18:36:18.714Z,9.90
2022-09-23T18:38:47.019Z,9.80
2022-09-23T18:41:15.369Z,9.90
2022-09-23T18:43:48.349Z,9.80
2022-09-23T18:46:17.626Z,9.80
2022-09-23T18:49:03.123Z,9.80
2022-09-23T18:51:32.230Z,9.80
2022-09-23T18:54:01.211Z,9.70
2022-09-23T18:56:33.533Z,9.70
2022-09-23T18:59:03.394Z,9.70
2022-09-23T19:01:31.731Z,9.70
2022-09-23T19:04:02.091Z,9.60
2022-09-23T19:06:30.522Z,9.70
2022-09-23T19:08:58.631Z,9.70
2022-09-23T19:11:26.817Z,9.60
2022-09-23T19:13:55.879Z,9.60
2022-09-23T19:16:25.936Z,9.40
2022-09-23T19:18:54.469Z,9.40
2022-09-23T19:21:23.298Z,9.40
2022-09-23T19:23:52.259Z,9.50
2022-09-23T19:26:21.825Z,9.50
2022-09-23T19:28:50.339Z,9.50
2022-09-23T19:31:23.263Z,9.50
2022-09-23T19:33:57.005Z,9.50
2022-09-23T19:36:29.024Z,9.40
2022-09-23T19:38:58.375Z,9.30
2022-09-23T19:41:28.144Z,9.30
2022-09-23T19:43:57.015Z,9.30
2022-09-23T19:46:25.308Z,9.20
2022-09-23T19:48:53.442Z,9.20
2022-09-23T19:51:23.729Z,9.20
2022-09-23T19:53:51.900Z,9.20
2022-09-23T19:56:20.180Z,9.10
2022-09-23T19:58:48.779Z,9.00
2022-09-23T20:01:17.492Z,8.90
2022-09-23T20:03:45.831Z,9.00
2022-09-23T20:06:14.194Z,9.00
2022-09-23T20:08:43.815Z,9.00
2022-09-23T20:11:12.720Z,9.00
2022-09-23T20:13:41.175Z,8.90
2022-09-23T20:16:11.903Z,9.00
2022-09-23T20:18:40.249Z,8.90
2022-09-23T20:21:09.026Z,8.80
2022-09-23T20:23:37.257Z,8.80
2022-09-23T20:26:24.982Z,8.80
2022-09-23T20:28:53.281Z,8.80
2022-09-23T20:31:22.245Z,8.80
2022-09-23T20:33:51.707Z,8.80
2022-09-23T20:36:20.106Z,8.80
2022-09-23T20:38:48.629Z,8.80
2022-09-23T20:41:18.224Z,8.80
2022-09-23T20:43:47.666Z,8.70
2022-09-23T20:46:17.263Z,8.60
2022-09-23T20:48:47.530Z,8.60
2022-09-23T20:51:15.704Z,8.50
2022-09-23T20:53:44.602Z,8.50
2022-09-23T20:56:13.041Z,8.50
2022-09-23T20:58:42.903Z,8.50
2022-09-23T21:01:12.512Z,8.50
2022-09-23T21:03:41.507Z,8.50
2022-09-23T21:06:10.250Z,8.50
2022-09-23T21:08:39.418Z,8.50
2022-09-23T21:11:09.153Z,8.50
2022-09-23T21:13:37.587Z,8.50
2022-09-23T21:16:09.005Z,8.50
2022-09-23T21:18:37.560Z,8.40
2022-09-23T21:21:06.486Z,8.40
2022-09-23T21:23:35.526Z,8.40
2022-09-23T21:26:04.165Z,8.40
2022-09-23T21:28:33.083Z,8.40
2022-09-23T21:31:01.797Z,8.40
2022-09-23T21:33:31.600Z,8.30
2022-09-23T21:36:04.518Z,8.30
2022-09-23T21:38:32.760Z,8.30
2022-09-23T21:41:00.947Z,8.30
2022-09-23T21:43:32.534Z,8.20
2022-09-23T21:46:02.448Z,8.20
2022-09-23T21:48:32.794Z,8.20
2022-09-23T21:51:01.701Z,8.20
2022-09-23T21:53:31.312Z,8.20
2022-09-23T21:56:03.803Z,8.20
2022-09-23T21:58:32.511Z,8.20
2022-09-23T22:01:01.225Z,8.10
2022-09-23T22:03:29.509Z,8.20
2022-09-23T22:06:09.706Z,8.20
2022-09-23T22:08:39.010Z,8.10
2022-09-23T22:11:08.093Z,8.10
2022-09-23T22:13:36.233Z,8.10
2022-09-23T22:16:06.178Z,8.10
2022-09-23T22:18:34.460Z,8.10
2022-09-23T22:21:02.574Z,8.00
2022-09-23T22:23:32.051Z,8.00
2022-09-23T22:26:03.202Z,7.90
2022-09-23T22:28:50.669Z,8.00
2022-09-23T22:31:37.091Z,8.00
2022-09-23T22:34:05.451Z,8.10
2022-09-23T22:36:34.109Z,8.10
2022-09-23T22:39:05.137Z,8.10
2022-09-23T22:41:35.585Z,8.10
2022-09-23T22:44:04.270Z,8.10
2022-09-23T22:46:35.537Z,8.20
2022-09-23T22:49:04.601Z,8.20
2022-09-23T22:51:32.932Z,8.10
2022-09-23T22:54:01.055Z,8.20
2022-09-23T22:56:30.617Z,8.30
2022-09-23T22:59:01.793Z,8.20
2022-09-23T23:01:31.197Z,8.20
2022-09-23T23:04:01.305Z,8.10
2022-09-23T23:06:36.557Z,8.20
2022-09-23T23:09:06.823Z,8.20
2022-09-23T23:11:36.528Z,8.10
2022-09-23T23:14:04.926Z,8.20
2022-09-23T23:16:35.115Z,8.20
2022-09-23T23:19:04.188Z,8.20
2022-09-23T23:21:32.331Z,8.20
2022-09-23T23:24:00.586Z,8.20
2022-09-23T23:26:29.790Z,8.20
2022-09-23T23:28:59.271Z,8.20
2022-09-23T23:31:28.641Z,8.20
2022-09-23T23:33:56.932Z,8.20
2022-09-23T23:36:25.204Z,8.20
2022-09-23T23:38:53.294Z,8.20
2022-09-23T23:41:22.741Z,8.20
2022-09-23T23:43:56.081Z,8.10
2022-09-23T23:46:26.640Z,8.10
2022-09-23T23:48:55.120Z,8.10
2022-09-23T23:51:23.475Z,8.10
2022-09-23T23:53:53.282Z,8.10
2022-09-23T23:56:22.399Z,8.10
2022-09-23T23:58:54.856Z,8.10
